sensor_id;sensor_type;location;lat;lon;timestamp;P1;durP1;ratioP1;P2;durP2;ratioP2
46363;SDS011;32071;49.036;9.344;2024-03-02T00:02:18;18.90;;;9.83;;
46363;SDS011;32071;49.036;9.344;2024-03-02T00:04:44;19.40;;;11.93;;
46363;SDS011;32071;49.036;9.344;2024-03-02T00:07:10;18.17;;;11.50;;
46363;SDS011;32071;49.036;9.344;2024-03-02T00:09:39;18.70;;;10.13;;
46363;SDS011;32071;49.036;9.344;2024-03-02T00:12:05;18.30;;;10.17;;
46363;SDS011;32071;49.036;9.344;2024-03-02T00:14:31;17.60;;;9.70;;
46363;SDS011;32071;49.036;9.344;2024-03-02T00:16:57;14.77;;;10.00;;
46363;SDS011;32071;49.036;9.344;2024-03-02T00:19:22;15.50;;;9.47;;
46363;SDS011;32071;49.036;9.344;2024-03-02T00:21:48;16.87;;;10.50;;
46363;SDS011;32071;49.036;9.344;2024-03-02T00:24:20;14.60;;;9.07;;
46363;SDS011;32071;49.036;9.344;2024-03-02T00:26:50;16.33;;;9.03;;
46363;SDS011;32071;49.036;9.344;2024-03-02T00:29:16;14.93;;;9.17;;
46363;SDS011;32071;49.036;9.344;2024-03-02T00:31:43;17.00;;;9.53;;
46363;SDS011;32071;49.036;9.344;2024-03-02T00:34:08;16.10;;;9.50;;
46363;SDS011;32071;49.036;9.344;2024-03-02T00:36:37;15.33;;;9.20;;
46363;SDS011;32071;49.036;9.344;2024-03-02T00:39:03;14.70;;;9.93;;
46363;SDS011;32071;49.036;9.344;2024-03-02T00:41:32;15.10;;;9.17;;
46363;SDS011;32071;49.036;9.344;2024-03-02T00:43:59;13.70;;;9.47;;
46363;SDS011;32071;49.036;9.344;2024-03-02T00:46:37;14.90;;;9.20;;
46363;SDS011;32071;49.036;9.344;2024-03-02T00:49:04;18.53;;;10.90;;
46363;SDS011;32071;49.036;9.344;2024-03-02T00:51:37;17.10;;;9.30;;
46363;SDS011;32071;49.036;9.344;2024-03-02T00:54:04;15.37;;;9.43;;
46363;SDS011;32071;49.036;9.344;2024-03-02T00:56:30;14.47;;;10.10;;
46363;SDS011;32071;49.036;9.344;2024-03-02T00:58:57;13.60;;;7.60;;
46363;SDS011;32071;49.036;9.344;2024-03-02T01:01:23;18.33;;;9.03;;
46363;SDS011;32071;49.036;9.344;2024-03-02T01:03:48;13.13;;;8.90;;
46363;SDS011;32071;49.036;9.344;2024-03-02T01:06:15;17.80;;;10.27;;
46363;SDS011;32071;49.036;9.344;2024-03-02T01:08:41;15.03;;;9.07;;
46363;SDS011;32071;49.036;9.344;2024-03-02T01:11:07;15.57;;;8.87;;
46363;SDS011;32071;49.036;9.344;2024-03-02T01:13:33;14.07;;;8.57;;
46363;SDS011;32071;49.036;9.344;2024-03-02T01:15:58;14.07;;;8.17;;
46363;SDS011;32071;49.036;9.344;2024-03-02T01:18:24;17.37;;;10.00;;
46363;SDS011;32071;49.036;9.344;2024-03-02T01:20:50;19.80;;;9.97;;
46363;SDS011;32071;49.036;9.344;2024-03-02T01:23:20;15.60;;;8.70;;
46363;SDS011;32071;49.036;9.344;2024-03-02T01:25:47;13.83;;;8.50;;
46363;SDS011;32071;49.036;9.344;2024-03-02T01:28:13;22.83;;;10.10;;
46363;SDS011;32071;49.036;9.344;2024-03-02T01:30:39;17.50;;;10.70;;
46363;SDS011;32071;49.036;9.344;2024-03-02T01:33:05;20.13;;;10.30;;
46363;SDS011;32071;49.036;9.344;2024-03-02T01:35:31;18.43;;;10.17;;
46363;SDS011;32071;49.036;9.344;2024-03-02T01:37:57;16.93;;;9.70;;
46363;SDS011;32071;49.036;9.344;2024-03-02T01:40:23;15.57;;;9.60;;
46363;SDS011;32071;49.036;9.344;2024-03-02T01:42:52;17.80;;;10.37;;
46363;SDS011;32071;49.036;9.344;2024-03-02T01:45:19;16.03;;;10.03;;
46363;SDS011;32071;49.036;9.344;2024-03-02T01:47:45;18.23;;;9.73;;
46363;SDS011;32071;49.036;9.344;2024-03-02T01:50:11;14.33;;;8.53;;
46363;SDS011;32071;49.036;9.344;2024-03-02T01:52:37;14.63;;;9.10;;
46363;SDS011;32071;49.036;9.344;2024-03-02T01:55:03;16.30;;;9.07;;
46363;SDS011;32071;49.036;9.344;2024-03-02T01:57:29;16.37;;;9.77;;
46363;SDS011;32071;49.036;9.344;2024-03-02T01:59:55;13.97;;;8.80;;
46363;SDS011;32071;49.036;9.344;2024-03-02T02:02:21;16.27;;;9.07;;
46363;SDS011;32071;49.036;9.344;2024-03-02T02:04:46;12.90;;;8.83;;
46363;SDS011;32071;49.036;9.344;2024-03-02T02:07:12;13.53;;;9.20;;
46363;SDS011;32071;49.036;9.344;2024-03-02T02:09:39;18.13;;;10.53;;
46363;SDS011;32071;49.036;9.344;2024-03-02T02:12:06;17.70;;;8.87;;
46363;SDS011;32071;49.036;9.344;2024-03-02T02:14:32;14.40;;;9.67;;
46363;SDS011;32071;49.036;9.344;2024-03-02T02:16:58;20.40;;;9.87;;
46363;SDS011;32071;49.036;9.344;2024-03-02T02:19:24;14.10;;;9.23;;
46363;SDS011;32071;49.036;9.344;2024-03-02T02:21:49;18.20;;;9.20;;
46363;SDS011;32071;49.036;9.344;2024-03-02T02:24:15;16.27;;;9.40;;
46363;SDS011;32071;49.036;9.344;2024-03-02T02:26:40;16.43;;;9.30;;
46363;SDS011;32071;49.036;9.344;2024-03-02T02:29:06;16.50;;;9.93;;
46363;SDS011;32071;49.036;9.344;2024-03-02T02:31:38;15.47;;;9.80;;
46363;SDS011;32071;49.036;9.344;2024-03-02T02:34:05;16.03;;;9.80;;
46363;SDS011;32071;49.036;9.344;2024-03-02T02:36:31;14.10;;;8.50;;
46363;SDS011;32071;49.036;9.344;2024-03-02T02:39:02;15.27;;;8.87;;
46363;SDS011;32071;49.036;9.344;2024-03-02T02:41:29;15.97;;;9.23;;
46363;SDS011;32071;49.036;9.344;2024-03-02T02:43:55;13.57;;;9.13;;
46363;SDS011;32071;49.036;9.344;2024-03-02T02:46:20;19.47;;;9.33;;
46363;SDS011;32071;49.036;9.344;2024-03-02T02:48:46;14.63;;;8.60;;
46363;SDS011;32071;49.036;9.344;2024-03-02T02:51:11;15.23;;;9.10;;
46363;SDS011;32071;49.036;9.344;2024-03-02T02:53:37;15.70;;;9.27;;
46363;SDS011;32071;49.036;9.344;2024-03-02T02:56:05;20.93;;;9.67;;
46363;SDS011;32071;49.036;9.344;2024-03-02T02:58:31;15.10;;;8.83;;
46363;SDS011;32071;49.036;9.344;2024-03-02T03:00:57;16.87;;;9.37;;
46363;SDS011;32071;49.036;9.344;2024-03-02T03:03:22;17.30;;;10.00;;
46363;SDS011;32071;49.036;9.344;2024-03-02T03:05:48;13.77;;;8.13;;
46363;SDS011;32071;49.036;9.344;2024-03-02T03:08:14;15.20;;;9.10;;
46363;SDS011;32071;49.036;9.344;2024-03-02T03:10:40;14.90;;;8.90;;
46363;SDS011;32071;49.036;9.344;2024-03-02T03:13:06;17.73;;;9.83;;
46363;SDS011;32071;49.036;9.344;2024-03-02T03:15:34;16.20;;;9.80;;
46363;SDS011;32071;49.036;9.344;2024-03-02T03:18:01;16.70;;;8.70;;
46363;SDS011;32071;49.036;9.344;2024-03-02T03:20:28;15.40;;;9.27;;
46363;SDS011;32071;49.036;9.344;2024-03-02T03:22:55;20.73;;;9.67;;
46363;SDS011;32071;49.036;9.344;2024-03-02T03:25:21;16.00;;;9.43;;
46363;SDS011;32071;49.036;9.344;2024-03-02T03:27:46;17.20;;;9.57;;
46363;SDS011;32071;49.036;9.344;2024-03-02T03:30:12;18.50;;;10.37;;
46363;SDS011;32071;49.036;9.344;2024-03-02T03:32:38;17.47;;;9.90;;
46363;SDS011;32071;49.036;9.344;2024-03-02T03:35:04;16.00;;;8.80;;
46363;SDS011;32071;49.036;9.344;2024-03-02T03:37:30;16.57;;;8.80;;
46363;SDS011;32071;49.036;9.344;2024-03-02T03:39:58;15.67;;;9.43;;
46363;SDS011;32071;49.036;9.344;2024-03-02T03:42:24;13.23;;;8.47;;
46363;SDS011;32071;49.036;9.344;2024-03-02T03:44:50;18.00;;;9.40;;
46363;SDS011;32071;49.036;9.344;2024-03-02T03:47:15;16.70;;;9.63;;
46363;SDS011;32071;49.036;9.344;2024-03-02T03:49:41;17.83;;;9.80;;
46363;SDS011;32071;49.036;9.344;2024-03-02T03:52:06;17.77;;;9.33;;
46363;SDS011;32071;49.036;9.344;2024-03-02T03:54:32;19.20;;;10.27;;
46363;SDS011;32071;49.036;9.344;2024-03-02T03:56:57;18.87;;;11.50;;
46363;SDS011;32071;49.036;9.344;2024-03-02T03:59:23;19.23;;;10.23;;
46363;SDS011;32071;49.036;9.344;2024-03-02T04:01:48;18.07;;;10.53;;
46363;SDS011;32071;49.036;9.344;2024-03-02T04:04:14;19.67;;;9.97;;
46363;SDS011;32071;49.036;9.344;2024-03-02T04:06:40;17.60;;;10.53;;
46363;SDS011;32071;49.036;9.344;2024-03-02T04:09:05;19.87;;;11.10;;
46363;SDS011;32071;49.036;9.344;2024-03-02T04:11:31;17.57;;;9.63;;
46363;SDS011;32071;49.036;9.344;2024-03-02T04:13:56;18.70;;;9.60;;
46363;SDS011;32071;49.036;9.344;2024-03-02T04:16:22;17.37;;;9.70;;
46363;SDS011;32071;49.036;9.344;2024-03-02T04:18:48;18.20;;;9.97;;
46363;SDS011;32071;49.036;9.344;2024-03-02T04:21:13;13.13;;;8.20;;
46363;SDS011;32071;49.036;9.344;2024-03-02T04:23:39;20.83;;;10.10;;
46363;SDS011;32071;49.036;9.344;2024-03-02T04:26:04;17.63;;;9.93;;
46363;SDS011;32071;49.036;9.344;2024-03-02T04:28:30;20.90;;;11.07;;
46363;SDS011;32071;49.036;9.344;2024-03-02T04:30:55;18.83;;;10.40;;
46363;SDS011;32071;49.036;9.344;2024-03-02T04:33:21;18.30;;;10.83;;
46363;SDS011;32071;49.036;9.344;2024-03-02T04:35:47;23.50;;;13.20;;
46363;SDS011;32071;49.036;9.344;2024-03-02T04:38:12;20.00;;;11.23;;
46363;SDS011;32071;49.036;9.344;2024-03-02T04:40:38;19.67;;;10.77;;
46363;SDS011;32071;49.036;9.344;2024-03-02T04:43:03;22.73;;;11.60;;
46363;SDS011;32071;49.036;9.344;2024-03-02T04:45:29;24.13;;;12.10;;
46363;SDS011;32071;49.036;9.344;2024-03-02T04:47:54;22.27;;;12.73;;
46363;SDS011;32071;49.036;9.344;2024-03-02T04:50:20;19.63;;;11.60;;
46363;SDS011;32071;49.036;9.344;2024-03-02T04:52:46;18.97;;;11.10;;
46363;SDS011;32071;49.036;9.344;2024-03-02T04:55:11;20.47;;;11.50;;
46363;SDS011;32071;49.036;9.344;2024-03-02T04:57:52;21.43;;;11.23;;
46363;SDS011;32071;49.036;9.344;2024-03-02T05:00:19;20.70;;;11.27;;
46363;SDS011;32071;49.036;9.344;2024-03-02T05:02:45;23.70;;;11.80;;
46363;SDS011;32071;49.036;9.344;2024-03-02T05:05:11;22.80;;;11.63;;
46363;SDS011;32071;49.036;9.344;2024-03-02T05:07:37;26.37;;;12.40;;
46363;SDS011;32071;49.036;9.344;2024-03-02T05:10:02;22.40;;;12.70;;
46363;SDS011;32071;49.036;9.344;2024-03-02T05:12:28;20.57;;;10.80;;
46363;SDS011;32071;49.036;9.344;2024-03-02T05:15:09;21.67;;;11.60;;
46363;SDS011;32071;49.036;9.344;2024-03-02T05:17:35;24.70;;;11.20;;
46363;SDS011;32071;49.036;9.344;2024-03-02T05:20:02;28.00;;;11.97;;
46363;SDS011;32071;49.036;9.344;2024-03-02T05:22:33;21.60;;;11.50;;
46363;SDS011;32071;49.036;9.344;2024-03-02T05:24:59;19.30;;;10.30;;
46363;SDS011;32071;49.036;9.344;2024-03-02T05:27:25;19.57;;;10.30;;
46363;SDS011;32071;49.036;9.344;2024-03-02T05:29:54;19.00;;;9.73;;
46363;SDS011;32071;49.036;9.344;2024-03-02T05:32:19;19.40;;;10.97;;
46363;SDS011;32071;49.036;9.344;2024-03-02T05:34:45;16.57;;;9.60;;
46363;SDS011;32071;49.036;9.344;2024-03-02T05:37:10;19.60;;;10.60;;
46363;SDS011;32071;49.036;9.344;2024-03-02T05:39:36;17.20;;;9.43;;
46363;SDS011;32071;49.036;9.344;2024-03-02T05:42:02;21.47;;;11.10;;
46363;SDS011;32071;49.036;9.344;2024-03-02T05:44:28;24.67;;;11.83;;
46363;SDS011;32071;49.036;9.344;2024-03-02T05:46:53;18.53;;;10.60;;
46363;SDS011;32071;49.036;9.344;2024-03-02T05:49:19;21.30;;;11.30;;
46363;SDS011;32071;49.036;9.344;2024-03-02T05:51:45;19.83;;;9.80;;
46363;SDS011;32071;49.036;9.344;2024-03-02T05:54:10;21.90;;;10.30;;
46363;SDS011;32071;49.036;9.344;2024-03-02T05:56:36;19.10;;;10.17;;
46363;SDS011;32071;49.036;9.344;2024-03-02T05:59:01;20.40;;;11.60;;
46363;SDS011;32071;49.036;9.344;2024-03-02T06:01:38;18.53;;;10.83;;
46363;SDS011;32071;49.036;9.344;2024-03-02T06:04:04;21.67;;;10.07;;
46363;SDS011;32071;49.036;9.344;2024-03-02T06:06:29;21.00;;;10.53;;
46363;SDS011;32071;49.036;9.344;2024-03-02T06:08:55;19.40;;;10.70;;
46363;SDS011;32071;49.036;9.344;2024-03-02T06:11:21;19.17;;;10.67;;
46363;SDS011;32071;49.036;9.344;2024-03-02T06:13:47;19.00;;;11.07;;
46363;SDS011;32071;49.036;9.344;2024-03-02T06:16:12;17.13;;;10.03;;
46363;SDS011;32071;49.036;9.344;2024-03-02T06:18:38;22.03;;;12.57;;
46363;SDS011;32071;49.036;9.344;2024-03-02T06:21:04;23.10;;;11.23;;
46363;SDS011;32071;49.036;9.344;2024-03-02T06:23:29;20.70;;;10.83;;
46363;SDS011;32071;49.036;9.344;2024-03-02T06:25:55;17.17;;;10.33;;
46363;SDS011;32071;49.036;9.344;2024-03-02T06:28:21;21.10;;;9.90;;
46363;SDS011;32071;49.036;9.344;2024-03-02T06:30:46;22.47;;;9.90;;
46363;SDS011;32071;49.036;9.344;2024-03-02T06:33:12;19.77;;;11.30;;
46363;SDS011;32071;49.036;9.344;2024-03-02T06:35:37;18.90;;;9.53;;
46363;SDS011;32071;49.036;9.344;2024-03-02T06:38:04;18.57;;;9.97;;
46363;SDS011;32071;49.036;9.344;2024-03-02T06:40:30;19.97;;;10.27;;
46363;SDS011;32071;49.036;9.344;2024-03-02T06:42:55;17.17;;;10.03;;
46363;SDS011;32071;49.036;9.344;2024-03-02T06:45:21;18.50;;;9.80;;
46363;SDS011;32071;49.036;9.344;2024-03-02T06:47:46;19.40;;;8.63;;
46363;SDS011;32071;49.036;9.344;2024-03-02T06:50:12;18.97;;;10.43;;
46363;SDS011;32071;49.036;9.344;2024-03-02T06:52:38;17.30;;;8.70;;
46363;SDS011;32071;49.036;9.344;2024-03-02T06:55:03;28.33;;;8.63;;
46363;SDS011;32071;49.036;9.344;2024-03-02T06:57:30;17.57;;;9.57;;
46363;SDS011;32071;49.036;9.344;2024-03-02T06:59:55;14.83;;;9.00;;
46363;SDS011;32071;49.036;9.344;2024-03-02T07:02:23;19.83;;;9.80;;
46363;SDS011;32071;49.036;9.344;2024-03-02T07:04:51;17.63;;;9.70;;
46363;SDS011;32071;49.036;9.344;2024-03-02T07:07:17;18.13;;;9.57;;
46363;SDS011;32071;49.036;9.344;2024-03-02T07:09:43;22.00;;;10.50;;
46363;SDS011;32071;49.036;9.344;2024-03-02T07:12:09;19.90;;;10.73;;
46363;SDS011;32071;49.036;9.344;2024-03-02T07:14:35;27.73;;;14.50;;
46363;SDS011;32071;49.036;9.344;2024-03-02T07:17:22;26.07;;;13.40;;
46363;SDS011;32071;49.036;9.344;2024-03-02T07:19:47;26.37;;;13.80;;
46363;SDS011;32071;49.036;9.344;2024-03-02T07:22:13;20.47;;;11.73;;
46363;SDS011;32071;49.036;9.344;2024-03-02T07:24:39;20.13;;;9.90;;
46363;SDS011;32071;49.036;9.344;2024-03-02T07:27:06;16.40;;;9.40;;
46363;SDS011;32071;49.036;9.344;2024-03-02T07:29:32;15.57;;;8.70;;
46363;SDS011;32071;49.036;9.344;2024-03-02T07:31:57;15.40;;;8.70;;
46363;SDS011;32071;49.036;9.344;2024-03-02T07:34:23;16.17;;;8.60;;
46363;SDS011;32071;49.036;9.344;2024-03-02T07:36:48;13.57;;;8.60;;
46363;SDS011;32071;49.036;9.344;2024-03-02T07:39:14;14.70;;;8.87;;
46363;SDS011;32071;49.036;9.344;2024-03-02T07:41:39;13.73;;;7.97;;
46363;SDS011;32071;49.036;9.344;2024-03-02T07:44:05;15.83;;;8.90;;
46363;SDS011;32071;49.036;9.344;2024-03-02T07:46:30;16.27;;;9.60;;
46363;SDS011;32071;49.036;9.344;2024-03-02T07:48:56;19.20;;;9.40;;
46363;SDS011;32071;49.036;9.344;2024-03-02T07:51:22;17.73;;;10.37;;
46363;SDS011;32071;49.036;9.344;2024-03-02T07:53:47;21.37;;;10.60;;
46363;SDS011;32071;49.036;9.344;2024-03-02T07:56:13;18.00;;;10.67;;
46363;SDS011;32071;49.036;9.344;2024-03-02T07:58:38;18.23;;;11.10;;
46363;SDS011;32071;49.036;9.344;2024-03-02T08:01:04;17.10;;;10.57;;
46363;SDS011;32071;49.036;9.344;2024-03-02T08:03:30;22.43;;;13.20;;
46363;SDS011;32071;49.036;9.344;2024-03-02T08:05:57;19.20;;;12.57;;
46363;SDS011;32071;49.036;9.344;2024-03-02T08:08:22;17.73;;;12.47;;
46363;SDS011;32071;49.036;9.344;2024-03-02T08:10:48;23.63;;;15.33;;
46363;SDS011;32071;49.036;9.344;2024-03-02T08:13:14;27.63;;;16.63;;
46363;SDS011;32071;49.036;9.344;2024-03-02T08:15:39;29.30;;;16.70;;
46363;SDS011;32071;49.036;9.344;2024-03-02T08:18:05;24.57;;;17.30;;
46363;SDS011;32071;49.036;9.344;2024-03-02T08:20:31;25.50;;;16.50;;
46363;SDS011;32071;49.036;9.344;2024-03-02T08:22:56;28.63;;;21.30;;
46363;SDS011;32071;49.036;9.344;2024-03-02T08:25:22;31.13;;;22.13;;
46363;SDS011;32071;49.036;9.344;2024-03-02T08:27:47;36.50;;;25.60;;
46363;SDS011;32071;49.036;9.344;2024-03-02T08:30:13;32.63;;;23.37;;
46363;SDS011;32071;49.036;9.344;2024-03-02T08:32:39;32.37;;;24.57;;
46363;SDS011;32071;49.036;9.344;2024-03-02T08:35:05;34.30;;;25.00;;
46363;SDS011;32071;49.036;9.344;2024-03-02T08:37:31;27.87;;;20.70;;
46363;SDS011;32071;49.036;9.344;2024-03-02T08:39:57;25.47;;;17.87;;
46363;SDS011;32071;49.036;9.344;2024-03-02T08:42:22;18.97;;;13.30;;
46363;SDS011;32071;49.036;9.344;2024-03-02T08:44:48;18.47;;;13.37;;
46363;SDS011;32071;49.036;9.344;2024-03-02T08:47:14;17.60;;;11.97;;
46363;SDS011;32071;49.036;9.344;2024-03-02T08:49:40;14.00;;;10.23;;
46363;SDS011;32071;49.036;9.344;2024-03-02T08:52:06;13.77;;;10.50;;
46363;SDS011;32071;49.036;9.344;2024-03-02T08:54:31;15.40;;;9.77;;
46363;SDS011;32071;49.036;9.344;2024-03-02T08:56:58;15.80;;;9.83;;
46363;SDS011;32071;49.036;9.344;2024-03-02T08:59:24;15.03;;;9.43;;
46363;SDS011;32071;49.036;9.344;2024-03-02T09:01:52;18.63;;;14.40;;
46363;SDS011;32071;49.036;9.344;2024-03-02T09:04:18;8.83;;;6.03;;
46363;SDS011;32071;49.036;9.344;2024-03-02T09:06:44;6.70;;;5.33;;
46363;SDS011;32071;49.036;9.344;2024-03-02T09:09:09;8.20;;;5.03;;
46363;SDS011;32071;49.036;9.344;2024-03-02T09:11:35;7.00;;;4.30;;
46363;SDS011;32071;49.036;9.344;2024-03-02T09:14:01;5.97;;;4.67;;
46363;SDS011;32071;49.036;9.344;2024-03-02T09:16:26;5.77;;;4.30;;
46363;SDS011;32071;49.036;9.344;2024-03-02T09:18:55;5.67;;;3.53;;
46363;SDS011;32071;49.036;9.344;2024-03-02T09:21:21;9.50;;;4.37;;
46363;SDS011;32071;49.036;9.344;2024-03-02T09:23:47;5.60;;;4.53;;
46363;SDS011;32071;49.036;9.344;2024-03-02T09:26:13;5.07;;;3.73;;
46363;SDS011;32071;49.036;9.344;2024-03-02T09:28:42;4.60;;;3.57;;
46363;SDS011;32071;49.036;9.344;2024-03-02T09:31:08;5.90;;;3.60;;
46363;SDS011;32071;49.036;9.344;2024-03-02T09:33:34;4.60;;;3.40;;
46363;SDS011;32071;49.036;9.344;2024-03-02T09:35:59;4.33;;;3.40;;
46363;SDS011;32071;49.036;9.344;2024-03-02T09:38:25;5.27;;;3.23;;
46363;SDS011;32071;49.036;9.344;2024-03-02T09:40:51;4.47;;;3.07;;
46363;SDS011;32071;49.036;9.344;2024-03-02T09:43:16;4.23;;;2.90;;
46363;SDS011;32071;49.036;9.344;2024-03-02T09:45:42;3.60;;;3.00;;
46363;SDS011;32071;49.036;9.344;2024-03-02T09:48:09;3.00;;;2.60;;
46363;SDS011;32071;49.036;9.344;2024-03-02T09:50:35;2.87;;;2.57;;
46363;SDS011;32071;49.036;9.344;2024-03-02T09:53:01;4.33;;;2.70;;
46363;SDS011;32071;49.036;9.344;2024-03-02T09:55:27;3.73;;;2.57;;
46363;SDS011;32071;49.036;9.344;2024-03-02T09:57:52;3.30;;;2.90;;
46363;SDS011;32071;49.036;9.344;2024-03-02T10:00:18;2.63;;;2.27;;
46363;SDS011;32071;49.036;9.344;2024-03-02T10:02:44;3.67;;;2.07;;
46363;SDS011;32071;49.036;9.344;2024-03-02T10:05:14;2.60;;;2.10;;
46363;SDS011;32071;49.036;9.344;2024-03-02T10:07:58;3.67;;;2.97;;
46363;SDS011;32071;49.036;9.344;2024-03-02T10:10:26;4.50;;;2.73;;
46363;SDS011;32071;49.036;9.344;2024-03-02T10:13:05;4.80;;;3.00;;
46363;SDS011;32071;49.036;9.344;2024-03-02T10:15:32;4.27;;;2.80;;
46363;SDS011;32071;49.036;9.344;2024-03-02T10:17:58;3.23;;;2.93;;
46363;SDS011;32071;49.036;9.344;2024-03-02T10:20:26;3.60;;;2.57;;
46363;SDS011;32071;49.036;9.344;2024-03-02T10:23:18;14.00;;;7.27;;
46363;SDS011;32071;49.036;9.344;2024-03-02T10:25:43;4.27;;;3.40;;
46363;SDS011;32071;49.036;9.344;2024-03-02T10:28:10;4.17;;;2.93;;
46363;SDS011;32071;49.036;9.344;2024-03-02T10:30:35;3.70;;;2.97;;
46363;SDS011;32071;49.036;9.344;2024-03-02T10:33:01;3.50;;;3.20;;
46363;SDS011;32071;49.036;9.344;2024-03-02T10:35:28;3.20;;;2.70;;
46363;SDS011;32071;49.036;9.344;2024-03-02T10:37:56;4.33;;;3.33;;
46363;SDS011;32071;49.036;9.344;2024-03-02T10:40:24;4.10;;;3.70;;
46363;SDS011;32071;49.036;9.344;2024-03-02T10:42:50;3.77;;;3.17;;
46363;SDS011;32071;49.036;9.344;2024-03-02T10:45:19;3.73;;;3.23;;
46363;SDS011;32071;49.036;9.344;2024-03-02T10:47:49;10.17;;;4.10;;
46363;SDS011;32071;49.036;9.344;2024-03-02T10:50:15;4.50;;;3.10;;
46363;SDS011;32071;49.036;9.344;2024-03-02T10:52:41;4.07;;;3.67;;
46363;SDS011;32071;49.036;9.344;2024-03-02T10:55:08;4.03;;;3.50;;
46363;SDS011;32071;49.036;9.344;2024-03-02T10:57:42;4.37;;;3.40;;
46363;SDS011;32071;49.036;9.344;2024-03-02T11:00:18;3.10;;;2.80;;
46363;SDS011;32071;49.036;9.344;2024-03-02T11:02:56;3.73;;;3.10;;
46363;SDS011;32071;49.036;9.344;2024-03-02T11:05:32;3.90;;;3.50;;
46363;SDS011;32071;49.036;9.344;2024-03-02T11:08:02;3.10;;;2.63;;
46363;SDS011;32071;49.036;9.344;2024-03-02T11:10:36;3.50;;;2.50;;
46363;SDS011;32071;49.036;9.344;2024-03-02T11:13:08;2.50;;;2.20;;
46363;SDS011;32071;49.036;9.344;2024-03-02T11:15:36;3.00;;;2.27;;
46363;SDS011;32071;49.036;9.344;2024-03-02T11:18:03;2.53;;;2.10;;
46363;SDS011;32071;49.036;9.344;2024-03-02T11:20:33;2.13;;;1.93;;
46363;SDS011;32071;49.036;9.344;2024-03-02T11:23:05;2.07;;;1.80;;
46363;SDS011;32071;49.036;9.344;2024-03-02T11:25:34;2.20;;;1.40;;
46363;SDS011;32071;49.036;9.344;2024-03-02T11:28:01;1.37;;;1.27;;
46363;SDS011;32071;49.036;9.344;2024-03-02T11:33:06;2.00;;;1.67;;
46363;SDS011;32071;49.036;9.344;2024-03-02T11:35:33;1.33;;;1.13;;
46363;SDS011;32071;49.036;9.344;2024-03-02T11:37:59;1.10;;;1.00;;
46363;SDS011;32071;49.036;9.344;2024-03-02T11:40:28;1.50;;;1.40;;
46363;SDS011;32071;49.036;9.344;2024-03-02T11:42:54;2.10;;;1.30;;
46363;SDS011;32071;49.036;9.344;2024-03-02T11:45:24;1.60;;;1.50;;
46363;SDS011;32071;49.036;9.344;2024-03-02T11:47:50;1.83;;;1.70;;
46363;SDS011;32071;49.036;9.344;2024-03-02T11:50:31;1.83;;;1.73;;
46363;SDS011;32071;49.036;9.344;2024-03-02T11:52:59;1.30;;;1.20;;
46363;SDS011;32071;49.036;9.344;2024-03-02T11:55:25;1.63;;;1.53;;
46363;SDS011;32071;49.036;9.344;2024-03-02T11:57:54;2.43;;;1.40;;
46363;SDS011;32071;49.036;9.344;2024-03-02T12:00:20;1.30;;;1.20;;
46363;SDS011;32071;49.036;9.344;2024-03-02T12:02:46;0.97;;;0.97;;
46363;SDS011;32071;49.036;9.344;2024-03-02T12:05:24;2.10;;;1.90;;
46363;SDS011;32071;49.036;9.344;2024-03-02T12:07:55;1.60;;;1.50;;
46363;SDS011;32071;49.036;9.344;2024-03-02T12:10:27;1.57;;;1.30;;
46363;SDS011;32071;49.036;9.344;2024-03-02T12:12:57;1.53;;;1.30;;
46363;SDS011;32071;49.036;9.344;2024-03-02T12:15:27;1.60;;;1.30;;
46363;SDS011;32071;49.036;9.344;2024-03-02T12:17:57;2.40;;;2.00;;
46363;SDS011;32071;49.036;9.344;2024-03-02T12:20:25;1.60;;;1.50;;
46363;SDS011;32071;49.036;9.344;2024-03-02T12:22:52;1.40;;;1.30;;
46363;SDS011;32071;49.036;9.344;2024-03-02T12:25:22;1.03;;;1.03;;
46363;SDS011;32071;49.036;9.344;2024-03-02T12:27:49;2.47;;;1.90;;
46363;SDS011;32071;49.036;9.344;2024-03-02T12:30:16;1.67;;;1.57;;
46363;SDS011;32071;49.036;9.344;2024-03-02T12:32:43;1.20;;;1.00;;
46363;SDS011;32071;49.036;9.344;2024-03-02T12:35:10;1.23;;;1.07;;
46363;SDS011;32071;49.036;9.344;2024-03-02T12:37:43;1.50;;;1.40;;
46363;SDS011;32071;49.036;9.344;2024-03-02T12:40:13;1.50;;;1.40;;
46363;SDS011;32071;49.036;9.344;2024-03-02T12:42:42;1.77;;;1.40;;
46363;SDS011;32071;49.036;9.344;2024-03-02T12:45:08;1.43;;;1.33;;
46363;SDS011;32071;49.036;9.344;2024-03-02T12:47:34;1.07;;;1.07;;
46363;SDS011;32071;49.036;9.344;2024-03-02T12:50:00;1.27;;;1.17;;
46363;SDS011;32071;49.036;9.344;2024-03-02T12:52:26;1.53;;;1.43;;
46363;SDS011;32071;49.036;9.344;2024-03-02T12:54:52;1.63;;;1.50;;
46363;SDS011;32071;49.036;9.344;2024-03-02T12:57:20;1.63;;;1.53;;
46363;SDS011;32071;49.036;9.344;2024-03-02T12:59:46;3.20;;;2.60;;
46363;SDS011;32071;49.036;9.344;2024-03-02T13:02:18;1.67;;;1.57;;
46363;SDS011;32071;49.036;9.344;2024-03-02T13:04:44;1.87;;;1.67;;
46363;SDS011;32071;49.036;9.344;2024-03-02T13:07:10;2.00;;;1.30;;
46363;SDS011;32071;49.036;9.344;2024-03-02T13:09:38;1.50;;;1.40;;
46363;SDS011;32071;49.036;9.344;2024-03-02T13:12:04;1.53;;;1.20;;
46363;SDS011;32071;49.036;9.344;2024-03-02T13:14:33;1.90;;;1.30;;
46363;SDS011;32071;49.036;9.344;2024-03-02T13:17:00;1.33;;;1.23;;
46363;SDS011;32071;49.036;9.344;2024-03-02T13:19:29;0.90;;;0.90;;
46363;SDS011;32071;49.036;9.344;2024-03-02T13:21:55;1.50;;;1.40;;
46363;SDS011;32071;49.036;9.344;2024-03-02T13:24:22;2.27;;;1.40;;
46363;SDS011;32071;49.036;9.344;2024-03-02T13:26:50;1.20;;;1.10;;
46363;SDS011;32071;49.036;9.344;2024-03-02T13:29:20;1.00;;;1.00;;
46363;SDS011;32071;49.036;9.344;2024-03-02T13:31:46;1.10;;;1.00;;
46363;SDS011;32071;49.036;9.344;2024-03-02T13:34:12;1.13;;;1.00;;
46363;SDS011;32071;49.036;9.344;2024-03-02T13:36:37;0.90;;;0.90;;
46363;SDS011;32071;49.036;9.344;2024-03-02T13:39:03;0.90;;;0.90;;
46363;SDS011;32071;49.036;9.344;2024-03-02T13:41:31;1.20;;;1.10;;
46363;SDS011;32071;49.036;9.344;2024-03-02T13:43:57;0.80;;;0.80;;
46363;SDS011;32071;49.036;9.344;2024-03-02T13:46:26;0.90;;;0.80;;
46363;SDS011;32071;49.036;9.344;2024-03-02T13:48:51;0.80;;;0.70;;
46363;SDS011;32071;49.036;9.344;2024-03-02T13:51:17;0.73;;;0.70;;
46363;SDS011;32071;49.036;9.344;2024-03-02T13:53:43;0.63;;;0.63;;
46363;SDS011;32071;49.036;9.344;2024-03-02T13:56:08;0.80;;;0.80;;
46363;SDS011;32071;49.036;9.344;2024-03-02T13:58:34;0.70;;;0.70;;
46363;SDS011;32071;49.036;9.344;2024-03-02T14:01:00;1.00;;;0.90;;
46363;SDS011;32071;49.036;9.344;2024-03-02T14:03:26;1.30;;;1.20;;
46363;SDS011;32071;49.036;9.344;2024-03-02T14:05:52;1.27;;;1.00;;
46363;SDS011;32071;49.036;9.344;2024-03-02T14:08:18;0.90;;;0.90;;
46363;SDS011;32071;49.036;9.344;2024-03-02T14:10:44;0.90;;;0.90;;
46363;SDS011;32071;49.036;9.344;2024-03-02T14:13:09;0.63;;;0.63;;
46363;SDS011;32071;49.036;9.344;2024-03-02T14:15:35;1.10;;;1.00;;
46363;SDS011;32071;49.036;9.344;2024-03-02T14:18:03;1.50;;;0.90;;
46363;SDS011;32071;49.036;9.344;2024-03-02T14:20:30;0.90;;;0.90;;
46363;SDS011;32071;49.036;9.344;2024-03-02T14:22:55;1.37;;;1.23;;
46363;SDS011;32071;49.036;9.344;2024-03-02T14:25:21;0.87;;;0.87;;
46363;SDS011;32071;49.036;9.344;2024-03-02T14:27:47;2.13;;;1.20;;
46363;SDS011;32071;49.036;9.344;2024-03-02T14:30:12;1.70;;;1.23;;
46363;SDS011;32071;49.036;9.344;2024-03-02T14:32:38;0.83;;;0.80;;
46363;SDS011;32071;49.036;9.344;2024-03-02T14:35:04;1.20;;;1.10;;
46363;SDS011;32071;49.036;9.344;2024-03-02T14:37:30;4.33;;;1.33;;